Thunder radar more information blitzortung!


Radar de pluja more information rain snow radar


Visita la nostra xarxa de llocs de meteo:

Template documentation
and downloads

And another site



No particular awareness of the weather is required.    There are no Weather-warnings

Pagina Historial Weather Underground text

Diari Resum January 21, 2018 Unitats:  Mètric    Imperial   Tant
« Previous Dia
SegĂźent Dia »
Diari Setmana Mensual Anual Personalitzada
  Maxima: Minima: Media:
Temperatura: -17.8 °C -11.2 °C -9.8 °C
Punt de rosada: -17.8 °C -15.1 °C -13.9 °C
Humitat: Humidity % 50 % 61 %
Wind Speed: 0 km/h 0 km/h 11.3 km/h
RĂ fegues de vent: 0 km/h - -
Vent:- - SSW
Pression baro: 0 hPa 34395 hPa -
Precipitacions: 0 mm    
Historical Graphs
 
 
Dades de taula per January 21, 2018
Temps Temperatura Punt de rosada Pression baro Vent Wind Speed RĂ fegues de vent Humitat Rainfall Rate (Hourly)
-17.8 °C -17.8 °C 0 hPa Calm     Humidity % 0 mm
00:03 -11.1 °C -15.1 °C 34428.8 hPa West 9 km/h 9 km/h 61 % 0 mm
00:08 -11 °C -15.1 °C 34428.8 hPa WSW 9 km/h 9 km/h 61 % 0 mm
00:13 -11 °C -15.1 °C 34428.8 hPa WSW 9.8 km/h 9.8 km/h 61 % 0 mm
00:18 -11 °C -15.1 °C 34428.8 hPa WSW 9 km/h 9 km/h 61 % 0 mm
00:23 -11.1 °C -14.9 °C 34428.8 hPa Calm     62 % 0 mm
00:28 -11.1 °C -14.9 °C 34428.8 hPa East 3.1 km/h   62 % 0 mm
00:33 -11 °C -14.9 °C 34428.8 hPa ESE 3.1 km/h 3.1 km/h 62 % 0 mm
00:38 -11.1 °C -14.8 °C 34428.8 hPa ESE 11.9 km/h 11.9 km/h 63 % 0 mm
00:43 -11.1 °C -14.8 °C 34428.8 hPa South 3.1 km/h 3.7 km/h 63 % 0 mm
00:48 -11.1 °C -15.1 °C 34462.7 hPa WSW 6 km/h 6 km/h 62 % 0 mm
00:53 -11.1 °C -15.1 °C 34462.7 hPa NE 6 km/h 6 km/h 62 % 0 mm
00:58 -11.1 °C -14.8 °C 34462.7 hPa NW 6 km/h 6.3 km/h 63 % 0 mm
01:03 -11.1 °C -14.9 °C 34428.8 hPa WNW 6 km/h 6 km/h 62 % 0 mm
01:08 -11.1 °C -14.9 °C 34428.8 hPa WSW 9.8 km/h 9.8 km/h 62 % 0 mm
01:13 -11 °C -14.8 °C 34428.8 hPa ENE 6 km/h 6 km/h 63 % 0 mm
01:18 -11 °C -14.9 °C 34428.8 hPa SSW 11.9 km/h 11.9 km/h 62 % 0 mm
01:23 -11 °C -14.8 °C 34428.8 hPa West 6 km/h 6 km/h 63 % 0 mm
01:28 -11 °C -14.8 °C 34428.8 hPa SW 6.3 km/h 6.3 km/h 63 % 0 mm
01:33 -11.1 °C -14.8 °C 34428.8 hPa NW 6 km/h 6 km/h 63 % 0 mm
01:38 -11.1 °C -14.8 °C 34428.8 hPa West 9 km/h 9 km/h 63 % 0 mm
01:43 -10.9 °C -14.8 °C 34428.8 hPa West 9 km/h 9 km/h 63 % 0 mm
01:48 -11 °C -14.8 °C 34428.8 hPa WSW 9 km/h 9 km/h 63 % 0 mm
01:53 -11 °C -14.8 °C 34428.8 hPa SW 15.3 km/h 15.3 km/h 63 % 0 mm
01:58 -11 °C -14.8 °C 34428.8 hPa WSW 6 km/h 6 km/h 63 % 0 mm
02:03 -11.1 °C -14.8 °C 34428.8 hPa WNW 9 km/h 9 km/h 63 % 0 mm
02:08 -11 °C -14.8 °C 34428.8 hPa WNW 8 km/h 8 km/h 63 % 0 mm
02:13 -11 °C -14.8 °C 34428.8 hPa WSW 11.9 km/h 11.9 km/h 63 % 0 mm
02:18 -11 °C -14.8 °C 34395 hPa East 11.9 km/h 11.9 km/h 63 % 0 mm
02:23 -11.1 °C -14.9 °C 34395 hPa WNW 9 km/h 9 km/h 63 % 0 mm
02:28 -11.1 °C -14.9 °C 34395 hPa WNW 9 km/h 9 km/h 63 % 0 mm
02:33 -11 °C -14.7 °C 34395 hPa WNW 15 km/h 15 km/h 64 % 0 mm
02:38 -10.9 °C -14.6 °C 34395 hPa WSW 20.9 km/h 20.9 km/h 64 % 0 mm
02:43 -10.9 °C -14.6 °C 34395 hPa SW 17.9 km/h 17.9 km/h 64 % 0 mm
02:48 -10.8 °C -14.5 °C 34395 hPa SSW 26.9 km/h 26.9 km/h 64 % 0 mm
02:53 -10.8 °C -14.5 °C 34395 hPa WNW 11.9 km/h 11.9 km/h 64 % 0 mm
02:58 -10.9 °C -14.6 °C 34395 hPa West 14.5 km/h 14.5 km/h 64 % 0 mm
03:03 -10.9 °C -14.6 °C 34428.8 hPa WNW 11.9 km/h 11.9 km/h 64 % 0 mm
03:08 -10.8 °C -14.5 °C 34428.8 hPa SSW 15.3 km/h 15.3 km/h 64 % 0 mm
03:13 -10.8 °C -14.5 °C 34428.8 hPa SW 11.9 km/h 11.9 km/h 64 % 0 mm
03:18 -10.7 °C -14.4 °C 34428.8 hPa SW 11.9 km/h 11.9 km/h 64 % 0 mm
03:23 -10.7 °C -14.4 °C 34428.8 hPa NNW 15 km/h 15 km/h 64 % 0 mm
03:28 -10.7 °C -14.4 °C 34428.8 hPa East 6.3 km/h 6.3 km/h 64 % 0 mm
03:33 -10.7 °C -14.3 °C 34428.8 hPa ESE 11.9 km/h 11.9 km/h 64 % 0 mm
03:38 -10.7 °C -14.4 °C 34428.8 hPa NE 11.9 km/h 11.9 km/h 64 % 0 mm
03:43 -10.7 °C -14.3 °C 34428.8 hPa ESE 9 km/h 9 km/h 64 % 0 mm
03:48 -10.8 °C -14.5 °C 34428.8 hPa ESE 6 km/h   64 % 0 mm
03:53 -10.8 °C -14.5 °C 34428.8 hPa WNW 6 km/h 6 km/h 64 % 0 mm
03:58 -10.8 °C -14.5 °C 34428.8 hPa WSW 6 km/h 6 km/h 64 % 0 mm
04:03 -10.8 °C -14.5 °C 34428.8 hPa WNW 15 km/h 15 km/h 64 % 0 mm
04:08 -10.8 °C -14.5 °C 34428.8 hPa WNW 6 km/h 6 km/h 64 % 0 mm
04:13 -10.8 °C -14.5 °C 34428.8 hPa SSW 10.3 km/h 10.3 km/h 64 % 0 mm
04:18 -10.8 °C -14.5 °C 34428.8 hPa SSW 7.6 km/h 7.6 km/h 64 % 0 mm
04:23 -10.8 °C -14.5 °C 34428.8 hPa ENE 9 km/h 9 km/h 64 % 0 mm
04:28 -10.8 °C -14.5 °C 34428.8 hPa West 9 km/h 9 km/h 64 % 0 mm
04:33 -10.7 °C -14.4 °C 34428.8 hPa NW 11.9 km/h 11.9 km/h 64 % 0 mm
04:38 -10.7 °C -14.4 °C 34428.8 hPa South 9 km/h 9 km/h 64 % 0 mm
04:43 -10.7 °C -14.3 °C 34428.8 hPa West 9.3 km/h 9.3 km/h 64 % 0 mm
04:48 -10.7 °C -14.3 °C 34428.8 hPa NW 14 km/h 14 km/h 64 % 0 mm
04:53 -10.6 °C -14.3 °C 34428.8 hPa NNW 15 km/h 15 km/h 64 % 0 mm
04:58 -10.6 °C -14.3 °C 34428.8 hPa WSW 9 km/h 9 km/h 64 % 0 mm
05:03 -10.6 °C -14.3 °C 34428.8 hPa WNW 11.9 km/h 11.9 km/h 64 % 0 mm
05:08 -10.6 °C -14.3 °C 34428.8 hPa WNW 17.9 km/h 17.9 km/h 64 % 0 mm
05:13 -10.6 °C -14.3 °C 34428.8 hPa WNW 11.9 km/h 11.9 km/h 64 % 0 mm
05:18 -10.6 °C -14.3 °C 34395 hPa WNW 18.3 km/h 18.3 km/h 64 % 0 mm
05:23 -10.6 °C -14.3 °C 34395 hPa ENE 20.9 km/h 20.9 km/h 64 % 0 mm
05:28 -10.6 °C -14.3 °C 34395 hPa WNW 11.9 km/h 11.9 km/h 64 % 0 mm
05:33 -10.6 °C -14.3 °C 34395 hPa WNW 20.9 km/h 20.9 km/h 64 % 0 mm
05:38 -10.5 °C -14.2 °C 34395 hPa WSW 20.9 km/h 20.9 km/h 64 % 0 mm
05:43 -10.5 °C -14.2 °C 34395 hPa NW 15 km/h 15 km/h 64 % 0 mm
05:48 -10.5 °C -14.2 °C 34428.8 hPa West 15 km/h 15 km/h 64 % 0 mm
05:53 -10.5 °C -14.2 °C 34428.8 hPa East 15 km/h 15 km/h 64 % 0 mm
05:58 -10.6 °C -14.3 °C 34428.8 hPa NW 9 km/h 9 km/h 64 % 0 mm
06:03 -10.6 °C -14.3 °C 34428.8 hPa WNW 17.9 km/h 17.9 km/h 64 % 0 mm
06:08 -10.6 °C -14.3 °C 34428.8 hPa WNW 16.1 km/h 16.1 km/h 64 % 0 mm
06:13 -10.6 °C -14.3 °C 34428.8 hPa WSW 14 km/h 14 km/h 64 % 0 mm
06:18 -10.6 °C -14.3 °C 34462.7 hPa West 12.2 km/h 12.2 km/h 64 % 0 mm
06:23 -10.6 °C -14.3 °C 34462.7 hPa WSW 15 km/h 15 km/h 64 % 0 mm
06:28 -10.6 °C -14.3 °C 34462.7 hPa West 29.8 km/h 29.8 km/h 64 % 0 mm
06:33 -10.5 °C -14.2 °C 34428.8 hPa NNE 15 km/h 15 km/h 64 % 0 mm
06:38 -10.6 °C -14.3 °C 34428.8 hPa West 15 km/h 15 km/h 64 % 0 mm
06:48 -10.6 °C -14.3 °C 34462.7 hPa WNW 11.9 km/h 11.9 km/h 64 % 0 mm
06:54 -10.6 °C -14.3 °C 34462.7 hPa WNW 15 km/h 15 km/h 64 % 0 mm
06:59 -10.6 °C -14.3 °C 34462.7 hPa WNW 20.9 km/h 20.9 km/h 64 % 0 mm
07:04 -10.6 °C -14.3 °C 34462.7 hPa SW 15 km/h 15 km/h 64 % 0 mm
07:14 -10.6 °C -14.3 °C 34462.7 hPa NW 11.9 km/h 11.9 km/h 64 % 0 mm
07:19 -10.7 °C -14.3 °C 34462.7 hPa WNW 11.9 km/h 11.9 km/h 64 % 0 mm
07:44 -10.7 °C -14.2 °C 34428.8 hPa WNW 17.9 km/h 17.9 km/h 65 % 0 mm
07:49 -10.6 °C -14.2 °C 34462.7 hPa SSE 15 km/h 15 km/h 65 % 0 mm
07:54 -10.6 °C -14.2 °C 34462.7 hPa NNE 11.9 km/h 11.9 km/h 65 % 0 mm
07:59 -10.6 °C -14.2 °C 34462.7 hPa NNW 17.9 km/h 17.9 km/h 65 % 0 mm
08:09 -10.7 °C -14.2 °C 34462.7 hPa NNW 20.9 km/h 20.9 km/h 65 % 0 mm
08:14 -10.7 °C -14.2 °C 34462.7 hPa West 17.9 km/h 17.9 km/h 65 % 0 mm
08:19 -10.6 °C -14.2 °C 34462.7 hPa WNW 9 km/h 9 km/h 65 % 0 mm
08:24 -10.6 °C -14.2 °C 34462.7 hPa South 6 km/h 6 km/h 65 % 0 mm
08:34 -10.6 °C -14.1 °C 34496.6 hPa ENE 11.9 km/h 11.9 km/h 65 % 0 mm
08:39 -10.6 °C -14.1 °C 34496.6 hPa NE 6.8 km/h 6.8 km/h 65 % 0 mm
08:49 -10.9 °C -14.6 °C 34496.6 hPa NNE 9 km/h 9 km/h 64 % 0 mm
08:54 -11 °C -14.6 °C 34496.6 hPa ENE 6 km/h 6 km/h 65 % 0 mm
08:59 -10.9 °C -14.5 °C 34496.6 hPa North 9 km/h 9 km/h 65 % 0 mm
09:04 -10.8 °C -14.4 °C 34496.6 hPa SSE 9 km/h 9 km/h 65 % 0 mm
09:09 -10.7 °C -14.3 °C 34496.6 hPa West 6 km/h 6.3 km/h 65 % 0 mm
09:19 -10.6 °C -14.1 °C 34496.6 hPa West 9.8 km/h 9.8 km/h 66 % 0 mm
09:29 -10.6 °C -14 °C 34496.6 hPa WNW 9 km/h 9 km/h 66 % 0 mm
09:34 -10.6 °C -14 °C 34533.8 hPa WSW 12.2 km/h 12.2 km/h 66 % 0 mm
09:39 -10.7 °C -14.2 °C 34533.8 hPa ENE 6 km/h 6 km/h 65 % 0 mm
09:44 -11 °C -14.6 °C 34533.8 hPa WNW 6 km/h 6 km/h 65 % 0 mm
09:49 -11.1 °C -14.6 °C 34533.8 hPa WNW 3.7 km/h 3.7 km/h 65 % 0 mm
09:54 -11.1 °C -14.5 °C 34533.8 hPa ENE 3.1 km/h 3.7 km/h 66 % 0 mm
09:59 -10.9 °C -14.4 °C 34533.8 hPa NW 9 km/h 9 km/h 66 % 0 mm
10:04 -10.8 °C -14.3 °C 34496.6 hPa ENE 9 km/h 9 km/h 66 % 0 mm
10:09 -10.8 °C -14.2 °C 34496.6 hPa West 11.9 km/h 11.9 km/h 66 % 0 mm
10:14 -10.7 °C -14.1 °C 34496.6 hPa NW 11.9 km/h 11.9 km/h 66 % 0 mm
10:19 -10.6 °C -14.1 °C 34533.8 hPa SW 9 km/h 9 km/h 66 % 0 mm
10:24 -10.6 °C -13.9 °C 34533.8 hPa NNE 6 km/h 6 km/h 67 % 0 mm
10:29 -10.5 °C -13.8 °C 34533.8 hPa WNW 11.1 km/h 11.1 km/h 67 % 0 mm
10:34 -10.4 °C -13.8 °C 34533.8 hPa ENE 6.8 km/h 6.8 km/h 67 % 0 mm
10:39 -10.8 °C -14.2 °C 34533.8 hPa NNE 17.9 km/h 17.9 km/h 66 % 0 mm
10:44 -11.1 °C -14.5 °C 34533.8 hPa NE 9 km/h 9 km/h 66 % 0 mm
10:49 -11.1 °C -14.6 °C 34533.8 hPa NNE 11.9 km/h 11.9 km/h 66 % 0 mm
10:54 -11.2 °C -14.6 °C 34533.8 hPa North 6.3 km/h 6.3 km/h 66 % 0 mm
10:59 -11.1 °C -14.6 °C 34533.8 hPa NNW 6 km/h 6 km/h 66 % 0 mm
11:04 -11.1 °C -14.6 °C 34533.8 hPa ENE 6 km/h 6 km/h 66 % 0 mm
11:09 -11.1 °C -14.6 °C 34533.8 hPa South 6 km/h 6 km/h 66 % 0 mm
11:14 -11.1 °C -14.6 °C 34533.8 hPa NE 11.9 km/h 11.9 km/h 66 % 0 mm
11:19 -11.1 °C -14.6 °C 34567.7 hPa NW 9 km/h 9 km/h 66 % 0 mm
11:24 -11.1 °C -14.4 °C 34567.7 hPa ENE 9 km/h 9 km/h 67 % 0 mm
11:29 -11.1 °C -14.3 °C 34567.7 hPa NE 6 km/h 6 km/h 67 % 0 mm
11:34 -11.1 °C -14.3 °C 34567.7 hPa ENE 6 km/h 6 km/h 67 % 0 mm
11:39 -11 °C -14.3 °C 34567.7 hPa NW 6 km/h 6 km/h 67 % 0 mm
11:44 -10.9 °C -14.3 °C 34567.7 hPa NNE 6 km/h 6 km/h 67 % 0 mm
11:49 -10.8 °C -14.1 °C 34567.7 hPa WSW 15 km/h 15 km/h 67 % 0 mm
11:54 -10.6 °C -13.9 °C 34567.7 hPa WSW 9 km/h 9 km/h 67 % 0 mm
11:59 -10.4 °C -13.7 °C 34567.7 hPa WSW 15 km/h 15 km/h 67 % 0 mm
12:04 -10.2 °C -13.6 °C 34533.8 hPa WSW 6.3 km/h 6.3 km/h 67 % 0 mm
12:09 -10.2 °C -13.5 °C 34533.8 hPa WSW 15 km/h 15 km/h 67 % 0 mm
12:14 -10.1 °C -13.4 °C 34533.8 hPa SW 17.9 km/h 17.9 km/h 67 % 0 mm
12:19 -10 °C -13.5 °C 34567.7 hPa ENE 6.3 km/h 6.3 km/h 66 % 0 mm
12:24 -10.2 °C -13.8 °C 34567.7 hPa ENE 9 km/h 9 km/h 65 % 0 mm
12:29 -10.3 °C -13.8 °C 34567.7 hPa ENE 6.8 km/h 6.8 km/h 66 % 0 mm
12:34 -10.4 °C -13.8 °C 34601.5 hPa NNE 11.9 km/h 11.9 km/h 66 % 0 mm
12:39 -10.4 °C -13.8 °C 34601.5 hPa ENE 6.8 km/h 6.8 km/h 66 % 0 mm
12:44 -10.3 °C -13.8 °C 34601.5 hPa East 6.8 km/h 6.8 km/h 66 % 0 mm
12:49 -10.3 °C -13.7 °C 34567.7 hPa ENE 6 km/h 6 km/h 66 % 0 mm
12:54 -10.2 °C -13.7 °C 34567.7 hPa NNE 7.6 km/h 7.6 km/h 66 % 0 mm
12:59 -10.2 °C -13.8 °C 34567.7 hPa ENE 6.3 km/h 6.3 km/h 65 % 0 mm
13:04 -10.1 °C -13.7 °C 34601.5 hPa ENE 9 km/h 9 km/h 65 % 0 mm
13:09 -10 °C -13.6 °C 34601.5 hPa NE 6.3 km/h 6.3 km/h 65 % 0 mm
13:14 -9.9 °C -13.6 °C 34601.5 hPa ENE 6.8 km/h 6.8 km/h 65 % 0 mm
13:19 -9.8 °C -13.4 °C 34567.7 hPa NNE 9 km/h 9 km/h 65 % 0 mm
13:24 -9.8 °C -13.4 °C 34567.7 hPa NNE 11.9 km/h 11.9 km/h 65 % 0 mm
13:29 -9.8 °C -13.6 °C 34567.7 hPa NE 15 km/h 15 km/h 64 % 0 mm
13:34 -9.8 °C -13.5 °C 34601.5 hPa ENE 11.9 km/h 11.9 km/h 64 % 0 mm
13:39 -9.6 °C -13.4 °C 34601.5 hPa NNE 9 km/h 9 km/h 64 % 0 mm
13:44 -9.5 °C -13.2 °C 34601.5 hPa NNE 6.8 km/h 6.8 km/h 64 % 0 mm
13:49 -9.4 °C -13.2 °C 34601.5 hPa NE 11.9 km/h 11.9 km/h 64 % 0 mm
13:54 -9.2 °C -13 °C 34601.5 hPa NNE 6 km/h 6 km/h 64 % 0 mm
13:59 -9.1 °C -12.9 °C 34601.5 hPa NNE 9 km/h 9 km/h 63 % 0 mm
14:04 -9.1 °C -12.9 °C 34601.5 hPa WNW 6.8 km/h 6.8 km/h 63 % 0 mm
14:09 -8.9 °C -12.9 °C 34601.5 hPa WNW 9 km/h 9 km/h 63 % 0 mm
14:14 -8.8 °C -12.9 °C 34601.5 hPa NE 11.9 km/h 11.9 km/h 62 % 0 mm
14:19 -8.8 °C -12.8 °C 34601.5 hPa West 11.9 km/h 11.9 km/h 62 % 0 mm
14:24 -8.7 °C -12.9 °C 34601.5 hPa NNE 7.6 km/h 7.6 km/h 61 % 0 mm
14:29 -8.7 °C -12.9 °C 34601.5 hPa NE 9 km/h 9 km/h 61 % 0 mm
14:34 -8.6 °C -12.7 °C 34601.5 hPa Calm     62 % 0 mm
14:39 -8.6 °C -12.7 °C 34601.5 hPa NW 3.1 km/h 3.1 km/h 61 % 0 mm
14:44 -8.5 °C -12.7 °C 34601.5 hPa NNE 3.7 km/h   61 % 0 mm
14:49 -8.5 °C -12.7 °C 34601.5 hPa NNE 6.8 km/h 6.8 km/h 61 % 0 mm
14:54 -8.5 °C -12.7 °C 34601.5 hPa NW 6 km/h 6 km/h 61 % 0 mm
14:59 -8.4 °C -12.7 °C 34601.5 hPa NNW 3.1 km/h 3.1 km/h 61 % 0 mm
15:04 -8.3 °C -12.7 °C 34567.7 hPa NW 9 km/h 9 km/h 60 % 0 mm
15:09 -8.3 °C -12.8 °C 34567.7 hPa NW 6 km/h 6 km/h 59 % 0 mm
15:14 -8.3 °C -12.8 °C 34567.7 hPa NE 6.3 km/h   59 % 0 mm
15:19 -8.3 °C -12.8 °C 34567.7 hPa NE 6.3 km/h 6.3 km/h 59 % 0 mm
15:24 -8.3 °C -12.8 °C 34567.7 hPa NNE 3.7 km/h 3.7 km/h 59 % 0 mm
15:29 -8.2 °C -12.7 °C 34567.7 hPa ENE 9 km/h 9 km/h 59 % 0 mm
15:34 -8.2 °C -12.7 °C 34567.7 hPa NNW 6 km/h 6 km/h 59 % 0 mm
15:39 -8.1 °C -12.6 °C 34567.7 hPa North 3.7 km/h   59 % 0 mm
15:44 -8.1 °C -12.6 °C 34567.7 hPa NW 4.2 km/h 4.2 km/h 59 % 0 mm
15:49 -8 °C -12.5 °C 34567.7 hPa Calm     59 % 0 mm
15:54 -7.8 °C -12.3 °C 34567.7 hPa Calm     59 % 0 mm
15:59 -7.7 °C -12.3 °C 34567.7 hPa North 6 km/h 6 km/h 59 % 0 mm
16:04 -7.6 °C -12.1 °C 34567.7 hPa NNW 11.9 km/h 11.9 km/h 59 % 0 mm
16:09 -7.4 °C -11.9 °C 34567.7 hPa SW 9 km/h 9 km/h 59 % 0 mm
16:14 -6.8 °C -11.6 °C 34567.7 hPa WNW 17.9 km/h 17.9 km/h 57 % 0 mm
16:19 -6.7 °C -11.8 °C 34601.5 hPa WNW 11.9 km/h 11.9 km/h 55 % 0 mm
16:21 -6.7 °C -11.8 °C 34601.5 hPa West 11.9 km/h 11.9 km/h 55 % 0 mm
16:26 -6.6 °C -11.9 °C 34601.5 hPa SSW 9 km/h 9 km/h 54 % 0 mm
16:31 -6.4 °C -11.8 °C 34601.5 hPa WSW 15 km/h 15 km/h 54 % 0 mm
16:36 -6.3 °C -11.8 °C 34567.7 hPa South 6 km/h 6 km/h 53 % 0 mm
16:41 -6.2 °C -11.7 °C 34567.7 hPa SW 6 km/h 6 km/h 53 % 0 mm
16:46 -6.2 °C -11.7 °C 34567.7 hPa SSW 9.8 km/h 9.8 km/h 53 % 0 mm
16:51 -6.2 °C -11.7 °C 34567.7 hPa West 11.9 km/h 11.9 km/h 53 % 0 mm
16:56 -6.2 °C -11.9 °C 34567.7 hPa West 15 km/h 15 km/h 52 % 0 mm
17:01 -6.3 °C -11.9 °C 34567.7 hPa NW 9 km/h 9 km/h 52 % 0 mm
17:06 -6.3 °C -12 °C 34601.5 hPa NW 9 km/h 9 km/h 52 % 0 mm
17:11 -6.4 °C -12.1 °C 34601.5 hPa SW 15 km/h 15 km/h 52 % 0 mm
17:16 -6.4 °C -12.3 °C 34601.5 hPa West 15 km/h 15 km/h 51 % 0 mm
17:21 -6.6 °C -12.4 °C 34601.5 hPa WSW 6.3 km/h 6.3 km/h 51 % 0 mm
17:26 -6.6 °C -12.4 °C 34601.5 hPa West 20.9 km/h 20.9 km/h 51 % 0 mm
17:31 -6.7 °C -12.6 °C 34601.5 hPa WNW 9 km/h 9 km/h 51 % 0 mm
17:36 -6.8 °C -12.6 °C 34567.7 hPa West 17.9 km/h 17.9 km/h 51 % 0 mm
17:41 -7 °C -12.8 °C 34567.7 hPa WSW 15 km/h 15 km/h 51 % 0 mm
17:46 -7.1 °C -13 °C 34567.7 hPa WNW 15 km/h 15 km/h 50 % 0 mm
17:51 -7.1 °C -13.1 °C 34601.5 hPa West 15 km/h 15 km/h 50 % 0 mm
17:56 -7.2 °C -13.2 °C 34601.5 hPa West 6 km/h 6 km/h 50 % 0 mm
18:01 -7.4 °C -13.2 °C 34601.5 hPa SW 6 km/h 6 km/h 51 % 0 mm
18:06 -7.4 °C -13.2 °C 34567.7 hPa West 11.9 km/h 11.9 km/h 51 % 0 mm
18:11 -7.5 °C -13.2 °C 34567.7 hPa WSW 15 km/h 15 km/h 51 % 0 mm
18:16 -7.6 °C -13.3 °C 34567.7 hPa WSW 9.3 km/h 9.3 km/h 51 % 0 mm
18:21 -7.7 °C -13.2 °C 34601.5 hPa West 15 km/h 15 km/h 52 % 0 mm
18:26 -7.8 °C -13.3 °C 34601.5 hPa WSW 9 km/h 9 km/h 52 % 0 mm
18:31 -7.8 °C -13.4 °C 34601.5 hPa WNW 15 km/h 15 km/h 52 % 0 mm
18:36 -7.9 °C -13.4 °C 34601.5 hPa SW 9 km/h 9 km/h 52 % 0 mm
18:41 -7.9 °C -13.4 °C 34601.5 hPa West 17.9 km/h 17.9 km/h 52 % 0 mm
18:46 -7.9 °C -13.5 °C 34601.5 hPa WSW 9 km/h 9 km/h 52 % 0 mm
18:51 -8.1 °C -13.6 °C 34567.7 hPa SSW 11.9 km/h 11.9 km/h 52 % 0 mm
18:56 -8.2 °C -13.7 °C 34567.7 hPa SSW 11.9 km/h 11.9 km/h 52 % 0 mm
19:01 -8.3 °C -13.7 °C 34567.7 hPa South 17.9 km/h 17.9 km/h 53 % 0 mm
19:06 -8.3 °C -13.7 °C 34601.5 hPa WSW 6.3 km/h 6.3 km/h 53 % 0 mm
19:11 -8.4 °C -13.6 °C 34601.5 hPa WNW 12.7 km/h 12.7 km/h 54 % 0 mm
19:16 -8.4 °C -13.6 °C 34601.5 hPa West 9 km/h 9 km/h 54 % 0 mm
19:21 -8.5 °C -13.7 °C 34601.5 hPa WNW 11.9 km/h 11.9 km/h 54 % 0 mm
19:26 -8.6 °C -13.8 °C 34601.5 hPa SW 9 km/h 9 km/h 54 % 0 mm
19:31 -8.6 °C -13.7 °C 34601.5 hPa SW 17.9 km/h 17.9 km/h 55 % 0 mm
19:36 -8.7 °C -13.7 °C 34635.4 hPa WSW 15 km/h 15 km/h 55 % 0 mm
19:41 -8.6 °C -13.7 °C 34635.4 hPa WSW 11.9 km/h 11.9 km/h 55 % 0 mm
19:46 -8.7 °C -13.8 °C 34635.4 hPa WSW 15 km/h 15 km/h 55 % 0 mm
19:51 -8.7 °C -13.8 °C 34601.5 hPa West 9 km/h 9 km/h 55 % 0 mm
19:56 -8.8 °C -13.8 °C 34601.5 hPa WSW 20.9 km/h 20.9 km/h 55 % 0 mm
20:01 -8.8 °C -13.8 °C 34601.5 hPa WSW 11.9 km/h 11.9 km/h 55 % 0 mm
20:06 -8.8 °C -13.7 °C 34635.4 hPa WSW 9.8 km/h 9.8 km/h 56 % 0 mm
20:11 -8.9 °C -13.8 °C 34635.4 hPa WSW 15 km/h 15 km/h 56 % 0 mm
20:16 -9.1 °C -13.9 °C 34635.4 hPa WSW 11.9 km/h 11.9 km/h 56 % 0 mm
20:21 -9.1 °C -14 °C 34635.4 hPa WSW 11.9 km/h 11.9 km/h 56 % 0 mm
20:26 -9.2 °C -14 °C 34635.4 hPa West 11.9 km/h 11.9 km/h 56 % 0 mm
20:31 -9.2 °C -13.9 °C 34635.4 hPa West 11.9 km/h 11.9 km/h 57 % 0 mm
20:36 -9.2 °C -13.9 °C 34635.4 hPa WNW 11.9 km/h 11.9 km/h 57 % 0 mm
20:41 -9.2 °C -13.9 °C 34635.4 hPa West 9 km/h 9 km/h 57 % 0 mm
20:46 -9.2 °C -13.9 °C 34635.4 hPa West 11.9 km/h 11.9 km/h 57 % 0 mm
20:51 -9.3 °C -14 °C 34635.4 hPa WNW 9 km/h 9 km/h 57 % 0 mm
20:56 -9.3 °C -14.1 °C 34635.4 hPa WSW 9 km/h 9 km/h 57 % 0 mm
21:01 -9.3 °C -13.9 °C 34635.4 hPa West 16.6 km/h 16.6 km/h 58 % 0 mm
21:06 -9.3 °C -13.9 °C 34601.5 hPa West 15.6 km/h 15.6 km/h 58 % 0 mm
21:11 -9.3 °C -13.9 °C 34601.5 hPa SW 20.9 km/h 20.9 km/h 58 % 0 mm
21:16 -9.3 °C -13.9 °C 34601.5 hPa West 20.9 km/h 20.9 km/h 58 % 0 mm
21:21 -9.3 °C -13.8 °C 34601.5 hPa West 26.9 km/h 26.9 km/h 58 % 0 mm
21:26 -9.3 °C -13.9 °C 34601.5 hPa WSW 23.8 km/h 23.8 km/h 58 % 0 mm
21:31 -9.3 °C -13.9 °C 34601.5 hPa West 20.9 km/h 20.9 km/h 58 % 0 mm
21:36 -9.4 °C -14.1 °C 34601.5 hPa West 17.9 km/h 17.9 km/h 57 % 0 mm
21:41 -9.4 °C -14.1 °C 34601.5 hPa West 20.9 km/h 20.9 km/h 57 % 0 mm
21:46 -9.4 °C -14.1 °C 34601.5 hPa West 22.5 km/h 22.5 km/h 57 % 0 mm
21:51 -9.4 °C -14.1 °C 34635.4 hPa West 26.9 km/h 26.9 km/h 57 % 0 mm
21:56 -9.4 °C -14.1 °C 34635.4 hPa West 26.9 km/h 26.9 km/h 57 % 0 mm
22:01 -9.5 °C -14.2 °C 34601.5 hPa West 22.5 km/h 22.5 km/h 57 % 0 mm
22:26 -9.7 °C -14.3 °C 34635.4 hPa WSW 15 km/h 15 km/h 58 % 0 mm
22:31 -9.8 °C -14.3 °C 34601.5 hPa West 20.9 km/h 20.9 km/h 58 % 0 mm
22:36 -9.8 °C -14.3 °C 34601.5 hPa West 26.9 km/h 26.9 km/h 58 % 0 mm
22:41 -9.8 °C -14.2 °C 34601.5 hPa West 20.9 km/h 20.9 km/h 59 % 0 mm
22:46 -9.9 °C -14.3 °C 34635.4 hPa West 17.9 km/h 17.9 km/h 59 % 0 mm
22:51 -9.9 °C -14.3 °C 34635.4 hPa West 9 km/h 9 km/h 59 % 0 mm
22:56 -10 °C -14.4 °C 34635.4 hPa West 8.5 km/h 10.3 km/h 59 % 0 mm
23:01 -10 °C -14.4 °C 34635.4 hPa WSW 9 km/h 9 km/h 59 % 0 mm
23:07 -10.1 °C -14.5 °C 34635.4 hPa WSW 9 km/h 9 km/h 59 % 0 mm
23:12 -10.2 °C -14.6 °C 34635.4 hPa West 6 km/h 6.3 km/h 59 % 0 mm
23:17 -10.2 °C -14.6 °C 34635.4 hPa West 9 km/h 9 km/h 59 % 0 mm
23:22 -10.2 °C -14.6 °C 34635.4 hPa WSW 11.9 km/h 11.9 km/h 59 % 0 mm
23:27 -10.2 °C -14.4 °C 34635.4 hPa West 12.2 km/h 12.2 km/h 60 % 0 mm
23:32 -10.2 °C -14.4 °C 34635.4 hPa WSW 17.9 km/h 17.9 km/h 60 % 0 mm
23:37 -10.2 °C -14.4 °C 34635.4 hPa WSW 11.9 km/h 11.9 km/h 60 % 0 mm
23:38 -10.2 °C -14.4 °C 34635.4 hPa WSW 16.6 km/h 16.6 km/h 60 % 0 mm
23:43 -10.2 °C -14.4 °C 34635.4 hPa West 20.9 km/h 20.9 km/h 60 % 0 mm
23:48 -10.2 °C -14.4 °C 34635.4 hPa West 12.2 km/h 12.2 km/h 60 % 0 mm
23:58 -10.2 °C -14.4 °C 34635.4 hPa West 11.9 km/h 11.9 km/h 60 % 0 mm
Meteo Sesrovires
Elogis d' Weather Underground - 1.75 mb

Guio original per  Jim McMurry - jmcmurry@mwt.net Adaptat per a la plantilla per  Wim van der Kuil - Leuven-Template.eu

Trobareu la nostra informacio del temps tambe a:

Weather Underground

AWEKAS